Time;durP1;ratioP1;P1;durP2;ratioP2;P2;SDS_P1;SDS_P2;PMS_P1;PMS_P2;Temp;Humidity;BMP_temperature;BMP_pressure;BME280_temperature;BME280_humidity;BME280_pressure;Samples;Min_cycle;Max_cycle;Signal;HPM_P1;HPM_P2
2022/06/21 03:02:50;;;;;;;0.70;0.50;;;19.20;65.20;;;;;;5130510;22;20544;-70
2022/06/21 03:05:20;;;;;;;0.70;0.57;;;19.20;65.50;;;;;;5035232;28;20442;-69
2022/06/21 03:07:53;;;;;;;0.80;0.60;;;19.20;65.40;;;;;;5035218;28;20505;-68
2022/06/21 03:10:25;;;;;;;0.87;0.60;;;19.20;65.30;;;;;;5035222;28;20522;-68
2022/06/21 03:13:01;;;;;;;0.70;0.53;;;19.10;64.60;;;;;;5015340;28;20425;-70
2022/06/21 03:15:28;;;;;;;0.80;0.60;;;19.10;64.00;;;;;;5016742;28;20436;-70
2022/06/21 03:18:04;;;;;;;0.70;0.50;;;19.10;63.80;;;;;;5015216;28;20495;-70
2022/06/21 03:20:33;;;;;;;0.80;0.60;;;19.00;62.70;;;;;;5014951;28;20958;-70
2022/06/21 03:23:01;;;;;;;0.80;0.60;;;18.90;62.30;;;;;;5014814;28;20905;-70
2022/06/21 03:25:33;;;;;;;0.70;0.50;;;18.90;62.30;;;;;;5015072;28;20448;-70
2022/06/21 03:28:01;;;;;;;0.70;0.50;;;18.90;62.20;;;;;;5015019;28;20436;-70
2022/06/21 03:30:30;;;;;;;0.80;0.60;;;18.90;62.60;;;;;;5014589;28;20444;-68
2022/06/21 03:32:59;;;;;;;0.70;0.50;;;19.00;62.20;;;;;;5014967;28;20526;-68
2022/06/21 03:35:27;;;;;;;0.80;0.60;;;19.00;62.60;;;;;;5014933;28;20878;-68
2022/06/21 03:37:54;;;;;;;0.70;0.60;;;18.90;62.50;;;;;;5014913;28;20444;-68
2022/06/21 03:43:32;;;;;;;0.70;0.60;;;19.00;62.20;;;;;;4935247;29;20542;-68
2022/06/21 03:46:04;;;;;;;0.70;0.60;;;19.00;62.40;;;;;;4934982;29;20448;-70
2022/06/21 03:48:38;;;;;;;0.70;0.60;;;19.00;62.20;;;;;;4977956;28;20551;-71
2022/06/21 03:51:08;;;;;;;0.70;0.60;;;19.00;63.00;;;;;;5014654;28;20503;-68
2022/06/21 03:53:41;;;;;;;0.80;0.60;;;19.00;63.20;;;;;;5014580;28;20448;-67
2022/06/21 03:56:14;;;;;;;0.80;0.60;;;19.10;63.10;;;;;;5014638;28;20429;-67
2022/06/21 03:58:49;;;;;;;0.70;0.60;;;19.10;62.50;;;;;;5014583;28;20487;-67
2022/06/21 04:01:19;;;;;;;0.70;0.60;;;19.10;62.70;;;;;;5014308;28;20491;-68
2022/06/21 04:03:57;;;;;;;0.70;0.60;;;19.20;62.00;;;;;;5014368;28;20522;-67
2022/06/21 04:06:29;;;;;;;0.87;0.60;;;19.10;62.30;;;;;;5014428;28;20440;-68
2022/06/21 04:09:01;;;;;;;0.80;0.70;;;19.20;62.20;;;;;;5014437;28;20432;-67
2022/06/21 04:11:37;;;;;;;0.70;0.50;;;19.20;62.30;;;;;;5014205;28;20534;-70
2022/06/21 04:14:10;;;;;;;0.70;0.60;;;19.20;62.30;;;;;;5014359;28;20463;-70
2022/06/21 04:16:47;;;;;;;0.70;0.50;;;19.10;62.50;;;;;;5014403;28;20436;-70
2022/06/21 04:19:22;;;;;;;0.70;0.60;;;19.00;62.40;;;;;;5014171;28;20432;-70
2022/06/21 04:21:53;;;;;;;0.70;0.70;;;19.10;62.40;;;;;;5014140;28;20502;-70
2022/06/21 04:24:26;;;;;;;0.80;0.60;;;18.90;63.30;;;;;;5014015;28;20464;-70
2022/06/21 04:27:01;;;;;;;0.70;0.60;;;18.90;63.10;;;;;;5014115;28;20432;-70
2022/06/21 04:29:32;;;;;;;0.70;0.60;;;18.90;63.00;;;;;;5013997;28;20490;-70
2022/06/21 04:32:05;;;;;;;0.70;0.50;;;18.80;62.50;;;;;;5013939;28;20530;-70
2022/06/21 04:34:38;;;;;;;0.80;0.80;;;18.80;62.60;;;;;;5013751;28;20831;-70
2022/06/21 04:37:10;;;;;;;0.70;0.60;;;18.80;62.80;;;;;;5014523;28;20436;-70
2022/06/21 04:39:43;;;;;;;0.70;0.50;;;18.70;62.50;;;;;;5013770;28;20440;-70
2022/06/21 04:42:15;;;;;;;0.70;0.60;;;18.70;62.60;;;;;;5013269;28;20476;-70
2022/06/21 04:44:46;;;;;;;0.93;0.83;;;18.60;63.40;;;;;;5013820;28;20468;-70
2022/06/21 04:47:19;;;;;;;0.70;0.60;;;18.60;63.30;;;;;;5013573;28;20904;-70
2022/06/21 04:49:50;;;;;;;0.70;0.60;;;18.30;63.70;;;;;;5013834;28;20850;-71
2022/06/21 04:52:21;;;;;;;0.70;0.57;;;18.40;63.80;;;;;;5013366;28;20987;-70
2022/06/21 04:54:48;;;;;;;1.27;0.60;;;18.30;63.90;;;;;;5013860;28;20417;-70
2022/06/21 04:57:16;;;;;;;0.80;0.80;;;18.10;65.00;;;;;;5013700;28;20521;-70
2022/06/21 04:59:46;;;;;;;1.07;0.80;;;18.10;64.70;;;;;;5013692;28;20495;-70
2022/06/21 05:02:17;;;;;;;0.70;0.60;;;17.60;65.90;;;;;;5013311;28;20480;-70
2022/06/21 05:04:46;;;;;;;1.10;0.60;;;17.80;66.40;;;;;;5013303;28;20982;-70
2022/06/21 05:07:18;;;;;;;0.90;0.80;;;18.00;66.20;;;;;;5013590;28;20444;-70
2022/06/21 05:09:46;;;;;;;0.83;0.70;;;18.10;65.70;;;;;;5013683;28;20517;-70
2022/06/21 05:12:21;;;;;;;0.70;0.60;;;18.10;65.40;;;;;;5013531;28;20868;-70
2022/06/21 05:14:51;;;;;;;0.80;0.67;;;18.10;65.60;;;;;;5014140;28;20432;-70
2022/06/21 05:17:20;;;;;;;0.70;0.60;;;18.30;65.80;;;;;;5013537;28;20440;-69
2022/06/21 05:19:50;;;;;;;0.70;0.60;;;18.30;65.60;;;;;;5013481;28;20502;-71
2022/06/21 05:22:22;;;;;;;0.77;0.70;;;18.40;65.80;;;;;;5013388;28;20479;-70
2022/06/21 05:24:49;;;;;;;0.80;0.60;;;18.20;65.50;;;;;;5013396;28;20496;-70
2022/06/21 05:27:23;;;;;;;0.80;0.60;;;18.40;65.90;;;;;;5013404;28;20455;-70
2022/06/21 05:29:56;;;;;;;1.10;0.60;;;18.40;65.50;;;;;;5013067;28;20486;-70
2022/06/21 05:32:28;;;;;;;0.80;0.70;;;18.40;66.20;;;;;;5013367;28;20526;-68
2022/06/21 05:34:58;;;;;;;0.90;0.70;;;18.50;66.30;;;;;;5013045;28;20483;-68
2022/06/21 05:37:31;;;;;;;0.80;0.70;;;18.50;66.50;;;;;;5013350;28;20502;-68
2022/06/21 05:40:01;;;;;;;0.80;0.67;;;18.60;66.20;;;;;;5013339;28;20432;-68
2022/06/21 05:42:29;;;;;;;0.87;0.70;;;18.80;65.90;;;;;;5013523;28;20479;-68
2022/06/21 05:45:00;;;;;;;0.90;0.70;;;18.80;66.00;;;;;;5013241;28;20530;-69
2022/06/21 05:47:29;;;;;;;0.80;0.70;;;18.80;66.20;;;;;;5013282;28;20436;-68
2022/06/21 05:49:58;;;;;;;0.80;0.70;;;18.80;66.00;;;;;;5013209;28;20444;-69
2022/06/21 05:52:31;;;;;;;1.27;0.80;;;18.80;66.20;;;;;;5014759;28;20555;-69
2022/06/21 05:55:02;;;;;;;0.80;0.70;;;19.00;66.60;;;;;;5016883;28;20432;-69
2022/06/21 05:57:38;;;;;;;0.70;0.70;;;18.40;68.40;;;;;;5016947;28;20436;-69
2022/06/21 06:00:06;;;;;;;0.80;0.70;;;18.50;69.00;;;;;;5016834;28;20486;-68
2022/06/21 06:02:39;;;;;;;0.90;0.73;;;18.40;68.80;;;;;;5016513;28;20558;-68
2022/06/21 06:05:12;;;;;;;0.80;0.70;;;18.50;68.70;;;;;;5017246;28;20514;-68
2022/06/21 06:07:46;;;;;;;0.70;0.70;;;18.70;68.20;;;;;;5016707;28;20511;-68
2022/06/21 06:10:14;;;;;;;0.80;0.60;;;19.00;68.40;;;;;;5016265;28;20425;-68
2022/06/21 06:12:45;;;;;;;1.00;0.70;;;19.30;68.00;;;;;;5016324;28;20542;-68
2022/06/21 06:15:16;;;;;;;1.30;0.70;;;19.30;68.40;;;;;;5016490;28;20488;-69
2022/06/21 06:17:48;;;;;;;0.70;0.70;;;19.20;68.40;;;;;;5016439;28;20436;-68
2022/06/21 06:20:22;;;;;;;0.70;0.70;;;19.20;69.20;;;;;;5016406;28;20429;-70
2022/06/21 06:22:57;;;;;;;0.70;0.60;;;19.20;68.40;;;;;;5015946;28;20432;-68
2022/06/21 06:25:30;;;;;;;0.80;0.60;;;19.30;68.20;;;;;;5015923;28;21036;-68
2022/06/21 06:28:02;;;;;;;1.00;0.70;;;19.70;67.90;;;;;;5016189;28;20490;-69
2022/06/21 06:30:36;;;;;;;0.77;0.70;;;20.00;67.40;;;;;;5016121;28;20482;-68
2022/06/21 06:33:13;;;;;;;0.80;0.70;;;20.40;67.00;;;;;;5016084;28;20436;-69
2022/06/21 06:35:41;;;;;;;1.03;0.70;;;20.50;66.60;;;;;;5015773;28;20904;-69
2022/06/21 06:38:14;;;;;;;0.80;0.63;;;20.90;65.80;;;;;;5016021;28;20847;-69
2022/06/21 06:40:44;;;;;;;0.70;0.67;;;21.00;63.80;;;;;;5015914;28;20498;-68
2022/06/21 06:43:16;;;;;;;0.80;0.70;;;21.20;63.10;;;;;;5015648;28;21011;-69
2022/06/21 06:45:44;;;;;;;0.90;0.70;;;21.10;62.00;;;;;;5015847;28;20479;-70
2022/06/21 06:48:17;;;;;;;0.80;0.70;;;21.00;63.50;;;;;;5015808;28;20448;-68
2022/06/21 06:50:48;;;;;;;0.80;0.70;;;21.20;63.80;;;;;;5016025;28;20476;-69
2022/06/21 06:53:19;;;;;;;1.13;0.70;;;21.40;62.50;;;;;;5015465;28;20904;-68
2022/06/21 06:55:48;;;;;;;0.70;0.60;;;21.40;62.30;;;;;;5015782;28;20429;-68
2022/06/21 06:58:25;;;;;;;0.70;0.70;;;21.40;60.60;;;;;;5015666;28;20503;-69
2022/06/21 07:00:56;;;;;;;0.70;0.60;;;21.10;61.50;;;;;;5015486;28;20463;-69
2022/06/21 07:03:25;;;;;;;1.30;0.60;;;21.10;62.80;;;;;;5014598;28;20433;-66
2022/06/21 07:05:58;;;;;;;0.80;0.70;;;21.40;62.80;;;;;;5015296;28;20484;-67
2022/06/21 07:08:34;;;;;;;0.90;0.80;;;21.50;61.80;;;;;;5015108;28;20975;-66
2022/06/21 07:11:04;;;;;;;0.90;0.70;;;21.80;61.70;;;;;;5015333;28;20477;-66
2022/06/21 07:13:33;;;;;;;1.13;0.90;;;21.60;60.80;;;;;;5015390;28;20487;-66
2022/06/21 07:16:06;;;;;;;0.70;0.70;;;21.60;60.30;;;;;;5015287;28;20495;-68
2022/06/21 07:18:39;;;;;;;0.83;0.70;;;21.50;61.30;;;;;;5015833;28;20451;-70
2022/06/21 07:21:06;;;;;;;0.80;0.80;;;21.60;61.30;;;;;;5015347;28;20511;-69
2022/06/21 07:23:35;;;;;;;0.70;0.60;;;22.00;59.90;;;;;;5015407;28;20866;-70
2022/06/21 07:26:07;;;;;;;0.90;0.60;;;22.30;60.20;;;;;;5015314;28;20488;-69
2022/06/21 07:28:38;;;;;;;1.40;0.90;;;22.50;60.10;;;;;;5015201;28;20436;-68
2022/06/21 07:31:11;;;;;;;0.70;0.67;;;22.30;59.10;;;;;;5015137;28;20591;-70
2022/06/21 07:33:42;;;;;;;1.00;0.70;;;22.50;59.10;;;;;;5015207;28;20516;-69
2022/06/21 07:36:15;;;;;;;0.83;0.70;;;22.60;59.10;;;;;;5014840;28;20964;-69
2022/06/21 07:38:49;;;;;;;0.90;0.73;;;22.30;59.90;;;;;;5015088;28;20432;-70
2022/06/21 07:41:21;;;;;;;1.40;0.70;;;22.20;58.50;;;;;;5015025;28;20525;-69
2022/06/21 07:43:51;;;;;;;0.90;0.73;;;22.20;58.90;;;;;;5015006;28;20433;-69
2022/06/21 07:46:22;;;;;;;0.70;0.67;;;22.20;59.40;;;;;;5014363;28;20484;-70
2022/06/21 07:48:54;;;;;;;0.70;0.60;;;22.30;58.50;;;;;;5014723;28;20515;-69
2022/06/21 07:51:24;;;;;;;0.87;0.70;;;22.40;59.20;;;;;;5014659;28;20876;-68
2022/06/21 07:53:55;;;;;;;0.70;0.60;;;22.10;59.30;;;;;;5014530;28;20453;-69
2022/06/21 07:56:27;;;;;;;1.00;0.90;;;22.00;57.60;;;;;;5014570;28;20440;-70
2022/06/21 07:59:02;;;;;;;0.90;0.70;;;22.10;60.20;;;;;;5014595;28;20850;-69
2022/06/21 08:07:15;;;;;;;0.70;0.67;;;22.00;58.30;;;;;;5014704;28;20934;-69
2022/06/21 08:09:49;;;;;;;0.70;0.63;;;21.60;59.00;;;;;;5014312;28;20449;-69
2022/06/21 08:12:17;;;;;;;1.50;0.70;;;21.70;58.60;;;;;;5014220;28;20484;-69
2022/06/21 08:14:44;;;;;;;1.07;0.70;;;21.70;58.60;;;;;;5013998;28;20452;-69
2022/06/21 08:17:17;;;;;;;0.80;0.60;;;21.70;58.30;;;;;;5013853;28;20932;-69
2022/06/21 08:19:50;;;;;;;0.80;0.67;;;21.40;58.10;;;;;;5014179;28;20428;-68
2022/06/21 08:22:20;;;;;;;0.77;0.63;;;21.10;59.40;;;;;;5014004;28;20472;-68
2022/06/21 08:24:53;;;;;;;0.80;0.70;;;21.00;59.70;;;;;;5013932;28;20890;-68
2022/06/21 08:27:27;;;;;;;0.80;0.70;;;21.00;59.60;;;;;;5013760;28;20920;-68
2022/06/21 08:29:56;;;;;;;0.77;0.60;;;20.60;61.00;;;;;;5013992;28;20487;-68
2022/06/21 08:32:32;;;;;;;0.80;0.70;;;20.30;60.80;;;;;;5013532;28;20472;-69
2022/06/21 08:35:06;;;;;;;0.93;0.70;;;20.40;61.90;;;;;;5013963;28;20519;-69
2022/06/21 08:37:41;;;;;;;0.80;0.70;;;20.50;61.50;;;;;;5014528;28;20491;-68
2022/06/21 08:40:48;;;;;;;0.70;0.60;;;20.70;62.30;;;;;;5013876;28;20436;-68
2022/06/21 08:43:48;;;;;;;0.70;0.60;;;20.50;61.10;;;;;;5013538;28;20850;-68
2022/06/21 08:46:40;;;;;;;0.80;0.70;;;20.70;62.80;;;;;;5008627;28;20480;-69
2022/06/21 08:49:59;;;;;;;0.70;0.70;;;21.00;60.70;;;;;;5013477;28;20803;-69
2022/06/21 08:52:45;;;;;;;0.80;0.60;;;21.00;61.60;;;;;;5013642;28;20805;-68
2022/06/21 08:55:23;;;;;;;1.10;0.70;;;21.20;60.30;;;;;;5013658;28;20433;-68
2022/06/21 08:58:02;;;;;;;0.80;0.70;;;21.50;59.80;;;;;;5013686;28;20435;-68
2022/06/21 09:00:36;;;;;;;0.70;0.60;;;21.50;59.90;;;;;;5013424;28;20470;-68
2022/06/21 09:03:15;;;;;;;0.73;0.67;;;21.50;59.80;;;;;;5013849;28;20425;-68
2022/06/21 09:05:51;;;;;;;0.87;0.63;;;21.40;59.40;;;;;;5013494;28;20468;-69
2022/06/21 09:08:40;;;;;;;0.80;0.70;;;21.50;60.30;;;;;;5013575;28;20455;-68
2022/06/21 09:11:23;;;;;;;0.80;0.60;;;21.60;59.60;;;;;;5013474;28;20534;-69
2022/06/21 09:14:29;;;;;;;1.20;0.63;;;21.50;59.60;;;;;;5013460;28;20528;-68
2022/06/21 09:17:05;;;;;;;0.80;0.73;;;21.40;61.50;;;;;;4997542;28;20491;-68
2022/06/21 09:19:44;;;;;;;0.73;0.70;;;21.70;59.80;;;;;;5013165;28;20908;-69
2022/06/21 09:22:20;;;;;;;0.70;0.50;;;21.80;58.90;;;;;;5013337;28;20475;-68
2022/06/21 09:24:57;;;;;;;0.80;0.70;;;21.40;59.90;;;;;;5013324;28;20439;-69
2022/06/21 09:27:28;;;;;;;1.10;0.73;;;21.60;60.60;;;;;;5015101;28;20436;-68
2022/06/21 09:30:06;;;;;;;0.90;0.60;;;21.90;59.40;;;;;;5017163;28;20444;-69
2022/06/21 09:32:45;;;;;;;0.70;0.70;;;22.10;60.00;;;;;;5017171;28;20518;-69
2022/06/21 09:35:27;;;;;;;0.83;0.60;;;22.40;58.20;;;;;;5017214;28;20429;-68
2022/06/21 09:38:15;;;;;;;1.23;0.73;;;22.60;56.60;;;;;;5016811;28;20915;-69
2022/06/21 09:40:47;;;;;;;0.77;0.57;;;23.10;57.60;;;;;;5016729;28;20429;-69
2022/06/21 09:43:28;;;;;;;0.87;0.70;;;23.30;57.40;;;;;;5017024;28;20482;-69
2022/06/21 09:46:03;;;;;;;0.80;0.70;;;23.20;55.90;;;;;;5017015;28;20833;-70
2022/06/21 09:48:36;;;;;;;0.70;0.50;;;23.20;56.40;;;;;;5017753;28;20440;-71
2022/06/21 09:51:08;;;;;;;0.80;0.60;;;23.30;58.40;;;;;;5017468;28;20480;-71
2022/06/21 09:53:45;;;;;;;0.70;0.60;;;23.60;57.80;;;;;;5016808;28;20860;-71
2022/06/21 09:56:22;;;;;;;0.70;0.60;;;23.90;56.00;;;;;;5017054;28;20486;-71
2022/06/21 09:59:02;;;;;;;0.80;0.60;;;24.00;56.30;;;;;;5017020;28;20482;-70
2022/06/21 10:01:35;;;;;;;1.53;0.70;;;23.90;56.70;;;;;;5016729;28;20472;-71
2022/06/21 10:04:11;;;;;;;0.90;0.70;;;24.10;56.50;;;;;;5016994;28;20452;-71
2022/06/21 10:06:45;;;;;;;0.70;0.60;;;24.00;56.10;;;;;;5016827;28;20501;-71
2022/06/21 10:09:27;;;;;;;1.83;0.80;;;24.20;56.00;;;;;;5016819;28;20437;-71
2022/06/21 10:12:04;;;;;;;1.00;0.60;;;24.60;54.20;;;;;;5016593;28;20464;-71
2022/06/21 10:14:53;;;;;;;0.80;0.60;;;24.40;55.00;;;;;;5017062;28;20436;-72
2022/06/21 10:17:46;;;;;;;0.70;0.53;;;23.80;57.30;;;;;;5017498;28;20804;-72
2022/06/21 10:20:34;;;;;;;0.70;0.60;;;24.00;57.00;;;;;;5016706;28;20487;-71
2022/06/21 10:23:15;;;;;;;0.90;0.70;;;24.00;57.10;;;;;;5016542;28;20436;-69
2022/06/21 10:26:04;;;;;;;0.80;0.70;;;23.60;57.50;;;;;;5016921;28;20526;-70
2022/06/21 10:28:47;;;;;;;0.70;0.60;;;23.90;58.50;;;;;;5016713;28;20417;-70
2022/06/21 10:31:41;;;;;;;0.80;0.70;;;23.70;57.00;;;;;;5016286;28;20809;-70
2022/06/21 10:34:43;;;;;;;0.80;0.60;;;23.70;57.20;;;;;;5013936;28;20479;-71
2022/06/21 10:37:35;;;;;;;0.80;0.77;;;23.80;57.90;;;;;;5012597;28;20863;-70
2022/06/21 10:40:23;;;;;;;1.27;0.60;;;24.10;57.60;;;;;;5014983;28;20881;-70
2022/06/21 10:43:25;;;;;;;0.80;0.60;;;24.50;58.10;;;;;;5016030;28;20499;-70
2022/06/21 10:45:55;;;;;;;0.70;0.60;;;24.70;57.50;;;;;;4985341;28;20522;-70
2022/06/21 10:48:53;;;;;;;0.77;0.70;;;24.90;55.80;;;;;;5015917;28;20554;-69
2022/06/21 10:51:33;;;;;;;0.80;0.80;;;24.90;57.10;;;;;;5015792;28;20468;-70
2022/06/21 10:54:15;;;;;;;0.70;0.60;;;24.50;57.00;;;;;;5015424;28;20977;-70
2022/06/21 10:57:11;;;;;;;0.70;0.70;;;24.20;57.90;;;;;;5015690;28;20427;-69
2022/06/21 11:03:25;;;;;;;1.20;0.70;;;24.50;57.60;;;;;;5015937;28;20446;-72
2022/06/21 11:06:05;;;;;;;0.80;0.67;;;24.70;57.00;;;;;;5013083;28;20583;-71
2022/06/21 11:08:41;;;;;;;0.70;0.60;;;24.60;57.30;;;;;;5015940;28;20440;-71
2022/06/21 11:11:17;;;;;;;0.70;0.70;;;24.60;56.90;;;;;;5016139;28;20468;-71
2022/06/21 11:13:50;;;;;;;0.70;0.70;;;24.20;57.30;;;;;;5016106;28;20436;-71
2022/06/21 11:16:25;;;;;;;0.93;0.70;;;24.60;59.30;;;;;;5016022;28;20433;-72
2022/06/21 11:19:00;;;;;;;1.00;0.70;;;24.90;58.70;;;;;;5016032;28;20432;-71
2022/06/21 11:21:44;;;;;;;0.70;0.50;;;25.30;57.60;;;;;;5015997;28;20873;-71
2022/06/21 11:24:21;;;;;;;0.70;0.60;;;25.40;56.20;;;;;;5015829;28;20507;-71
2022/06/21 11:26:57;;;;;;;1.10;0.80;;;25.40;56.10;;;;;;5015185;28;20522;-71
2022/06/21 11:29:34;;;;;;;0.70;0.70;;;25.50;57.20;;;;;;5015164;28;20920;-71
2022/06/21 11:32:11;;;;;;;0.80;0.70;;;25.40;56.20;;;;;;5015233;28;20529;-71
2022/06/21 11:34:43;;;;;;;0.87;0.70;;;25.50;57.10;;;;;;5014876;28;20432;-71
2022/06/21 11:37:29;;;;;;;0.70;0.70;;;25.60;57.70;;;;;;5015173;28;20523;-71
2022/06/21 11:40:04;;;;;;;0.93;0.70;;;25.80;57.40;;;;;;5015092;28;20498;-71
2022/06/21 11:42:37;;;;;;;0.70;0.70;;;26.00;56.80;;;;;;5015152;28;20653;-71
2022/06/21 11:45:33;;;;;;;0.70;0.60;;;26.20;56.60;;;;;;5015413;28;20418;-71
2022/06/21 11:48:23;;;;;;;1.17;1.00;;;25.90;56.80;;;;;;5014728;28;20991;-71
2022/06/21 11:50:59;;;;;;;0.80;0.63;;;26.00;57.00;;;;;;5014405;28;20555;-71
2022/06/21 11:53:44;;;;;;;0.70;0.70;;;25.70;57.00;;;;;;5014751;28;20477;-72
2022/06/21 11:56:18;;;;;;;0.80;0.60;;;25.60;58.00;;;;;;5015700;28;20555;-72
2022/06/21 11:58:50;;;;;;;1.10;0.70;;;25.60;58.20;;;;;;5016287;28;20428;-72
2022/06/21 12:01:21;;;;;;;0.80;0.80;;;25.80;57.90;;;;;;5017754;28;20488;-71
2022/06/21 12:04:05;;;;;;;0.77;0.73;;;25.90;58.00;;;;;;5015564;28;20502;-72
2022/06/21 12:06:39;;;;;;;0.90;0.70;;;25.70;59.80;;;;;;5016145;28;20468;-71
2022/06/21 12:09:17;;;;;;;0.90;0.60;;;25.90;58.30;;;;;;5015138;28;20440;-71
2022/06/21 12:12:10;;;;;;;0.83;0.70;;;26.20;57.90;;;;;;5015271;28;20872;-71
2022/06/21 12:14:48;;;;;;;0.70;0.70;;;26.30;57.10;;;;;;5014857;28;20502;-70
2022/06/21 12:17:20;;;;;;;1.30;0.77;;;26.50;58.10;;;;;;5014546;28;20491;-71
2022/06/21 12:19:50;;;;;;;0.80;0.80;;;26.70;57.30;;;;;;5014351;28;20758;-70
2022/06/21 12:22:25;;;;;;;0.80;0.70;;;26.90;55.20;;;;;;5014533;28;20519;-71
2022/06/21 12:24:53;;;;;;;2.33;0.80;;;27.00;57.40;;;;;;5014190;28;20498;-71
2022/06/21 12:27:21;;;;;;;2.50;0.60;;;27.40;56.50;;;;;;5014228;28;20484;-71
2022/06/21 12:29:49;;;;;;;0.80;0.80;;;27.30;56.40;;;;;;5014501;28;20962;-70
2022/06/21 12:32:21;;;;;;;0.80;0.60;;;27.10;57.40;;;;;;5014750;28;20538;-71
2022/06/21 12:35:01;;;;;;;0.80;0.70;;;26.80;57.80;;;;;;5014236;28;20475;-71
2022/06/21 12:37:34;;;;;;;0.80;0.80;;;26.80;57.40;;;;;;5014773;28;20521;-72
2022/06/21 12:40:11;;;;;;;0.80;0.70;;;26.90;58.00;;;;;;5014342;28;20443;-71
2022/06/21 12:42:47;;;;;;;0.70;0.60;;;26.50;58.30;;;;;;5014068;28;20471;-71
2022/06/21 12:45:33;;;;;;;0.80;0.70;;;26.30;58.60;;;;;;5014516;28;20433;-71
2022/06/21 12:48:13;;;;;;;0.80;0.73;;;26.30;59.30;;;;;;5013844;28;20440;-70
2022/06/21 12:50:55;;;;;;;0.80;0.70;;;26.30;59.50;;;;;;5013857;28;20436;-71
2022/06/21 12:53:48;;;;;;;0.70;0.70;;;26.40;58.90;;;;;;5013635;28;20428;-70
2022/06/21 12:56:30;;;;;;;0.70;0.70;;;26.30;59.30;;;;;;5013931;28;20472;-71
2022/06/21 12:59:27;;;;;;;0.80;0.70;;;26.40;60.30;;;;;;5013744;28;20424;-71
2022/06/21 13:02:08;;;;;;;0.70;0.70;;;26.80;59.50;;;;;;5012281;28;20979;-71
2022/06/21 13:05:03;;;;;;;0.70;0.60;;;27.10;57.90;;;;;;5013549;28;20490;-71
2022/06/21 13:07:44;;;;;;;1.47;0.73;;;27.10;58.40;;;;;;5013851;28;20468;-71
2022/06/21 13:10:28;;;;;;;0.90;0.73;;;27.30;58.10;;;;;;5013867;28;20439;-71
2022/06/21 13:13:15;;;;;;;0.77;0.70;;;27.30;58.80;;;;;;5013803;28;20436;-71
2022/06/21 13:16:07;;;;;;;1.93;0.90;;;27.60;57.90;;;;;;5013821;28;20519;-71
2022/06/21 13:18:52;;;;;;;0.77;0.77;;;27.80;56.90;;;;;;5001219;28;20448;-71
2022/06/21 13:21:31;;;;;;;1.47;0.70;;;27.90;57.50;;;;;;5014672;28;20484;-72
2022/06/21 13:24:13;;;;;;;0.80;0.70;;;28.10;58.10;;;;;;5013701;28;20435;-72
2022/06/21 13:27:06;;;;;;;0.70;0.67;;;28.30;55.80;;;;;;5013879;28;20468;-71
2022/06/21 13:29:47;;;;;;;0.70;0.70;;;28.10;56.00;;;;;;5005557;28;20452;-71
2022/06/21 13:32:18;;;;;;;0.80;0.70;;;28.10;56.50;;;;;;5013741;28;20472;-71
2022/06/21 13:34:50;;;;;;;0.93;0.70;;;28.40;56.50;;;;;;5013843;28;20435;-71
2022/06/21 13:37:22;;;;;;;0.70;0.70;;;28.30;55.30;;;;;;5013323;28;20425;-70
2022/06/21 13:39:56;;;;;;;0.80;0.80;;;28.10;56.50;;;;;;5013281;28;20966;-71
2022/06/21 13:42:40;;;;;;;0.80;0.77;;;27.90;56.20;;;;;;5013562;28;20546;-72
2022/06/21 13:45:26;;;;;;;0.70;0.70;;;27.70;56.90;;;;;;5013725;28;20431;-72
2022/06/21 13:48:00;;;;;;;0.80;0.80;;;27.90;57.50;;;;;;5013502;28;20468;-71
2022/06/21 13:50:33;;;;;;;0.70;0.70;;;28.10;57.60;;;;;;5013389;28;20506;-72
2022/06/21 13:53:10;;;;;;;0.80;0.70;;;28.30;56.30;;;;;;5013150;28;20959;-71
2022/06/21 13:55:45;;;;;;;1.00;0.90;;;28.30;56.80;;;;;;5013419;28;20514;-72
2022/06/21 13:58:23;;;;;;;0.80;0.73;;;28.20;56.20;;;;;;5013798;28;20447;-72
2022/06/21 14:00:58;;;;;;;0.90;0.70;;;28.40;55.90;;;;;;5013080;28;20518;-73
2022/06/21 14:03:34;;;;;;;0.70;0.60;;;28.60;56.50;;;;;;5013584;28;20444;-72
2022/06/21 14:06:05;;;;;;;0.87;0.70;;;28.70;55.80;;;;;;5013449;28;20428;-72
2022/06/21 14:08:37;;;;;;;0.80;0.80;;;28.90;56.50;;;;;;5013157;28;20490;-72
2022/06/21 14:11:13;;;;;;;0.80;0.70;;;29.10;55.90;;;;;;5013120;28;20471;-72
2022/06/21 14:13:47;;;;;;;1.23;0.73;;;29.10;55.40;;;;;;5015062;28;20958;-71
2022/06/21 14:16:23;;;;;;;0.70;0.70;;;28.80;55.20;;;;;;5017092;28;20527;-70
2022/06/21 14:19:01;;;;;;;0.70;0.60;;;28.30;56.60;;;;;;5016793;28;20494;-72
2022/06/21 14:21:34;;;;;;;1.07;0.77;;;28.70;55.90;;;;;;5016679;28;20541;-71
2022/06/21 14:24:07;;;;;;;0.90;0.70;;;29.00;56.40;;;;;;5016934;28;20455;-72
2022/06/21 14:26:39;;;;;;;0.80;0.80;;;29.30;55.90;;;;;;5016849;28;20472;-72
2022/06/21 14:29:12;;;;;;;0.80;0.70;;;29.30;56.00;;;;;;5016695;28;20511;-73
2022/06/21 14:31:46;;;;;;;1.00;0.80;;;29.30;55.10;;;;;;5016466;28;20468;-72
2022/06/21 14:34:21;;;;;;;0.80;0.70;;;29.30;55.00;;;;;;5016143;28;20433;-71
2022/06/21 14:36:54;;;;;;;0.90;0.90;;;29.50;55.00;;;;;;5016216;28;20484;-71
2022/06/21 14:39:27;;;;;;;0.80;0.73;;;29.60;55.40;;;;;;5016162;28;20924;-71
2022/06/21 14:41:57;;;;;;;0.90;0.90;;;29.60;54.60;;;;;;5016220;28;20468;-71
2022/06/21 14:44:28;;;;;;;1.03;0.80;;;29.50;54.80;;;;;;5015998;28;20494;-72
2022/06/21 14:47:01;;;;;;;1.30;0.80;;;29.70;54.60;;;;;;5016142;28;20465;-71
2022/06/21 14:49:34;;;;;;;0.80;0.70;;;29.80;54.30;;;;;;5016108;28;20850;-71
2022/06/21 14:52:30;;;;;;;0.70;0.60;;;30.00;53.90;;;;;;5015619;28;20995;-71
2022/06/21 14:55:15;;;;;;;0.70;0.70;;;30.20;54.20;;;;;;5015845;28;20502;-71
2022/06/21 14:57:56;;;;;;;0.70;0.70;;;30.30;54.00;;;;;;5015813;28;20428;-70
2022/06/21 15:00:31;;;;;;;0.70;0.60;;;30.40;53.40;;;;;;5015528;28;20436;-70
2022/06/21 15:03:11;;;;;;;0.70;0.70;;;30.40;53.90;;;;;;5015213;28;20495;-69
2022/06/21 15:05:50;;;;;;;0.90;0.80;;;30.40;53.40;;;;;;5015546;28;20498;-70
2022/06/21 15:08:26;;;;;;;0.80;0.80;;;30.60;53.20;;;;;;5015118;28;20844;-69
2022/06/21 15:11:01;;;;;;;0.80;0.70;;;30.60;52.00;;;;;;5015054;28;20991;-68
2022/06/21 15:13:35;;;;;;;1.37;0.70;;;30.70;53.00;;;;;;5015416;28;20841;-69
2022/06/21 15:16:14;;;;;;;0.80;0.80;;;30.70;52.20;;;;;;5017375;28;20502;-69
2022/06/21 15:18:52;;;;;;;0.70;0.70;;;30.90;52.50;;;;;;5015273;28;20428;-70
2022/06/21 15:21:23;;;;;;;0.70;0.70;;;31.10;51.90;;;;;;5015485;28;20460;-70
2022/06/21 15:23:57;;;;;;;1.00;0.83;;;31.20;52.10;;;;;;5015042;28;20441;-68
2022/06/21 15:26:29;;;;;;;1.00;0.70;;;31.50;50.90;;;;;;5014528;28;20432;-69
2022/06/21 15:29:14;;;;;;;1.27;0.70;;;31.60;51.50;;;;;;5015187;28;20440;-70
2022/06/21 15:31:48;;;;;;;1.20;0.90;;;31.60;51.00;;;;;;5015029;28;20505;-70
2022/06/21 15:34:27;;;;;;;0.70;0.60;;;31.60;51.50;;;;;;5015055;28;20498;-69
2022/06/21 15:36:59;;;;;;;0.80;0.80;;;31.40;51.30;;;;;;5014906;28;20490;-69
2022/06/21 15:39:32;;;;;;;0.70;0.60;;;31.40;51.30;;;;;;5014575;28;20900;-69
2022/06/21 15:42:08;;;;;;;0.70;0.70;;;31.30;51.90;;;;;;5014821;28;20567;-70
2022/06/21 15:44:47;;;;;;;1.00;0.90;;;31.30;51.10;;;;;;5014755;28;20436;-70
2022/06/21 15:50:22;;;;;;;0.80;0.70;;;31.00;51.60;;;;;;5014603;28;20408;-70
2022/06/21 15:53:20;;;;;;;1.53;1.20;;;31.10;51.60;;;;;;5014948;28;20520;-70
2022/06/21 15:55:52;;;;;;;0.80;0.70;;;30.50;52.60;;;;;;4999492;28;20815;-71
2022/06/21 15:58:30;;;;;;;0.90;0.70;;;30.60;52.30;;;;;;5014224;28;20852;-71
2022/06/21 16:01:03;;;;;;;0.70;0.70;;;30.60;52.30;;;;;;5014294;28;20535;-71
2022/06/21 16:03:33;;;;;;;0.70;0.70;;;30.40;53.00;;;;;;5014133;28;20823;-70
2022/06/21 16:06:08;;;;;;;0.90;0.70;;;30.30;53.00;;;;;;5014418;28;20444;-70
2022/06/21 16:08:39;;;;;;;0.70;0.63;;;30.30;53.70;;;;;;5014035;28;21048;-70
2022/06/21 16:11:17;;;;;;;0.80;0.70;;;30.30;53.80;;;;;;5014261;28;20530;-70
2022/06/21 16:13:47;;;;;;;0.80;0.73;;;30.20;53.60;;;;;;5014363;28;20487;-70
2022/06/21 16:16:16;;;;;;;0.80;0.70;;;30.00;53.80;;;;;;5014939;28;20514;-70
2022/06/21 16:18:46;;;;;;;0.80;0.80;;;30.10;53.30;;;;;;5014184;28;20440;-70
2022/06/21 16:21:20;;;;;;;0.80;0.60;;;29.80;53.70;;;;;;5015131;28;20519;-70
2022/06/21 16:23:54;;;;;;;0.70;0.70;;;29.70;54.60;;;;;;5014103;28;20462;-70
2022/06/21 16:26:26;;;;;;;0.97;0.90;;;29.70;54.70;;;;;;5013954;28;20995;-70
2022/06/21 16:29:00;;;;;;;0.90;0.73;;;29.80;54.60;;;;;;5014032;28;20562;-69
2022/06/21 16:34:25;;;;;;;0.80;0.70;;;29.40;54.70;;;;;;5014112;28;20403;-70
2022/06/21 16:36:57;;;;;;;0.80;0.70;;;29.70;55.10;;;;;;5013623;28;20432;-70
2022/06/21 16:39:31;;;;;;;0.80;0.70;;;29.80;54.60;;;;;;5013573;28;20908;-70
2022/06/21 16:44:51;;;;;;;1.00;0.90;;;29.90;54.40;;;;;;5014138;28;20404;-70
2022/06/21 16:47:26;;;;;;;0.70;0.70;;;29.80;54.70;;;;;;5013436;28;20885;-70
2022/06/21 16:49:56;;;;;;;0.80;0.70;;;29.80;54.40;;;;;;5014038;28;20428;-70
2022/06/21 16:52:30;;;;;;;1.03;0.70;;;29.60;54.50;;;;;;5013589;28;20472;-70
2022/06/21 16:55:00;;;;;;;0.80;0.70;;;29.40;54.90;;;;;;5013689;28;20440;-70